sensor_id;sensor_type;location;lat;lon;timestamp;P1;durP1;ratioP1;P2;durP2;ratioP2
44036;SDS011;62488;-37.670;-63.532;2022-09-25T00:00:10;4.20;;;3.58;;
44036;SDS011;62488;-37.670;-63.532;2022-09-25T00:02:44;8.30;;;4.20;;
44036;SDS011;62488;-37.670;-63.532;2022-09-25T00:08:33;11.85;;;5.13;;
44036;SDS011;62488;-37.670;-63.532;2022-09-25T00:11:05;5.78;;;4.53;;
44036;SDS011;62488;-37.670;-63.532;2022-09-25T00:13:34;4.65;;;4.18;;
44036;SDS011;62488;-37.670;-63.532;2022-09-25T00:16:03;11.40;;;4.23;;
44036;SDS011;62488;-37.670;-63.532;2022-09-25T00:18:31;6.60;;;4.43;;
44036;SDS011;62488;-37.670;-63.532;2022-09-25T00:21:17;8.85;;;4.40;;
44036;SDS011;62488;-37.670;-63.532;2022-09-25T00:23:48;7.05;;;4.18;;
44036;SDS011;62488;-37.670;-63.532;2022-09-25T00:26:15;5.68;;;4.10;;
44036;SDS011;62488;-37.670;-63.532;2022-09-25T00:28:48;6.28;;;4.13;;
44036;SDS011;62488;-37.670;-63.532;2022-09-25T00:31:18;7.78;;;5.30;;
44036;SDS011;62488;-37.670;-63.532;2022-09-25T00:34:01;9.18;;;5.20;;
44036;SDS011;62488;-37.670;-63.532;2022-09-25T00:37:12;6.10;;;4.60;;
44036;SDS011;62488;-37.670;-63.532;2022-09-25T00:40:14;8.40;;;4.68;;
44036;SDS011;62488;-37.670;-63.532;2022-09-25T00:42:45;8.75;;;5.07;;
44036;SDS011;62488;-37.670;-63.532;2022-09-25T00:45:21;7.30;;;4.95;;
44036;SDS011;62488;-37.670;-63.532;2022-09-25T00:48:00;9.48;;;4.93;;
44036;SDS011;62488;-37.670;-63.532;2022-09-25T00:53:22;9.38;;;5.50;;
44036;SDS011;62488;-37.670;-63.532;2022-09-25T00:56:00;5.65;;;4.57;;
44036;SDS011;62488;-37.670;-63.532;2022-09-25T00:58:32;10.27;;;5.47;;
44036;SDS011;62488;-37.670;-63.532;2022-09-25T01:01:02;6.45;;;4.97;;
44036;SDS011;62488;-37.670;-63.532;2022-09-25T01:03:30;8.57;;;5.10;;
44036;SDS011;62488;-37.670;-63.532;2022-09-25T01:06:03;7.80;;;4.45;;
44036;SDS011;62488;-37.670;-63.532;2022-09-25T01:08:37;9.15;;;5.40;;
44036;SDS011;62488;-37.670;-63.532;2022-09-25T01:11:05;5.50;;;4.65;;
44036;SDS011;62488;-37.670;-63.532;2022-09-25T01:13:33;7.97;;;4.32;;
44036;SDS011;62488;-37.670;-63.532;2022-09-25T01:16:13;6.88;;;4.32;;
44036;SDS011;62488;-37.670;-63.532;2022-09-25T01:21:51;4.80;;;3.83;;
44036;SDS011;62488;-37.670;-63.532;2022-09-25T01:24:36;10.30;;;4.15;;
44036;SDS011;62488;-37.670;-63.532;2022-09-25T01:30:41;7.63;;;3.50;;
44036;SDS011;62488;-37.670;-63.532;2022-09-25T01:33:36;4.57;;;4.18;;
44036;SDS011;62488;-37.670;-63.532;2022-09-25T01:36:40;9.15;;;5.05;;
44036;SDS011;62488;-37.670;-63.532;2022-09-25T01:41:56;5.72;;;4.13;;
44036;SDS011;62488;-37.670;-63.532;2022-09-25T01:44:43;6.57;;;4.18;;
44036;SDS011;62488;-37.670;-63.532;2022-09-25T01:47:23;7.55;;;4.63;;
44036;SDS011;62488;-37.670;-63.532;2022-09-25T01:50:01;8.45;;;5.38;;
44036;SDS011;62488;-37.670;-63.532;2022-09-25T01:52:36;7.10;;;4.25;;
44036;SDS011;62488;-37.670;-63.532;2022-09-25T01:55:13;7.25;;;4.53;;
44036;SDS011;62488;-37.670;-63.532;2022-09-25T01:57:49;6.35;;;4.43;;
44036;SDS011;62488;-37.670;-63.532;2022-09-25T02:00:28;5.38;;;4.13;;
44036;SDS011;62488;-37.670;-63.532;2022-09-25T02:03:04;5.40;;;4.53;;
44036;SDS011;62488;-37.670;-63.532;2022-09-25T02:05:44;7.30;;;3.88;;
44036;SDS011;62488;-37.670;-63.532;2022-09-25T02:08:20;5.70;;;4.18;;
44036;SDS011;62488;-37.670;-63.532;2022-09-25T02:10:56;5.00;;;4.22;;
44036;SDS011;62488;-37.670;-63.532;2022-09-25T02:13:28;6.50;;;3.75;;
44036;SDS011;62488;-37.670;-63.532;2022-09-25T02:16:10;7.25;;;4.07;;
44036;SDS011;62488;-37.670;-63.532;2022-09-25T02:18:45;5.63;;;3.72;;
44036;SDS011;62488;-37.670;-63.532;2022-09-25T02:30:44;7.22;;;4.25;;
44036;SDS011;62488;-37.670;-63.532;2022-09-25T02:33:14;9.32;;;4.97;;
44036;SDS011;62488;-37.670;-63.532;2022-09-25T02:35:44;8.02;;;4.35;;
44036;SDS011;62488;-37.670;-63.532;2022-09-25T02:38:15;5.43;;;4.18;;
44036;SDS011;62488;-37.670;-63.532;2022-09-25T02:40:47;6.72;;;4.35;;
44036;SDS011;62488;-37.670;-63.532;2022-09-25T02:43:21;6.75;;;4.72;;
44036;SDS011;62488;-37.670;-63.532;2022-09-25T02:46:12;6.20;;;3.85;;
44036;SDS011;62488;-37.670;-63.532;2022-09-25T02:49:19;5.82;;;4.18;;
44036;SDS011;62488;-37.670;-63.532;2022-09-25T02:52:00;4.72;;;4.05;;
44036;SDS011;62488;-37.670;-63.532;2022-09-25T02:54:43;7.68;;;4.22;;
44036;SDS011;62488;-37.670;-63.532;2022-09-25T02:57:23;4.95;;;3.50;;
44036;SDS011;62488;-37.670;-63.532;2022-09-25T03:00:07;9.48;;;3.80;;
44036;SDS011;62488;-37.670;-63.532;2022-09-25T03:02:41;6.35;;;4.22;;
44036;SDS011;62488;-37.670;-63.532;2022-09-25T03:05:19;5.68;;;3.95;;
44036;SDS011;62488;-37.670;-63.532;2022-09-25T03:08:08;5.53;;;3.83;;
44036;SDS011;62488;-37.670;-63.532;2022-09-25T03:14:31;6.70;;;4.00;;
44036;SDS011;62488;-37.670;-63.532;2022-09-25T03:17:42;4.95;;;3.50;;
44036;SDS011;62488;-37.670;-63.532;2022-09-25T03:25:03;4.28;;;3.60;;
44036;SDS011;62488;-37.670;-63.532;2022-09-25T03:28:21;4.28;;;3.80;;
44036;SDS011;62488;-37.670;-63.532;2022-09-25T03:31:28;4.82;;;3.78;;
44036;SDS011;62488;-37.670;-63.532;2022-09-25T03:34:12;4.55;;;3.72;;
44036;SDS011;62488;-37.670;-63.532;2022-09-25T03:37:07;4.22;;;3.85;;
44036;SDS011;62488;-37.670;-63.532;2022-09-25T03:39:51;6.05;;;3.67;;
44036;SDS011;62488;-37.670;-63.532;2022-09-25T03:42:25;5.93;;;4.60;;
44036;SDS011;62488;-37.670;-63.532;2022-09-25T03:44:58;6.10;;;4.15;;
44036;SDS011;62488;-37.670;-63.532;2022-09-25T03:47:25;5.00;;;3.90;;
44036;SDS011;62488;-37.670;-63.532;2022-09-25T03:49:59;9.18;;;4.00;;
44036;SDS011;62488;-37.670;-63.532;2022-09-25T03:52:27;6.07;;;3.95;;
44036;SDS011;62488;-37.670;-63.532;2022-09-25T03:54:55;5.40;;;3.85;;
44036;SDS011;62488;-37.670;-63.532;2022-09-25T03:57:57;8.32;;;3.85;;
44036;SDS011;62488;-37.670;-63.532;2022-09-25T04:10:12;3.88;;;3.55;;
44036;SDS011;62488;-37.670;-63.532;2022-09-25T04:12:43;5.93;;;3.40;;
44036;SDS011;62488;-37.670;-63.532;2022-09-25T04:15:12;3.75;;;3.28;;
44036;SDS011;62488;-37.670;-63.532;2022-09-25T04:17:39;4.95;;;3.53;;
44036;SDS011;62488;-37.670;-63.532;2022-09-25T04:20:06;5.10;;;3.40;;
44036;SDS011;62488;-37.670;-63.532;2022-09-25T04:22:34;4.22;;;3.72;;
44036;SDS011;62488;-37.670;-63.532;2022-09-25T04:25:07;5.28;;;4.78;;
44036;SDS011;62488;-37.670;-63.532;2022-09-25T04:27:37;4.82;;;4.43;;
44036;SDS011;62488;-37.670;-63.532;2022-09-25T04:30:12;5.85;;;4.88;;
44036;SDS011;62488;-37.670;-63.532;2022-09-25T04:32:53;6.70;;;4.82;;
44036;SDS011;62488;-37.670;-63.532;2022-09-25T04:35:42;6.00;;;5.07;;
44036;SDS011;62488;-37.670;-63.532;2022-09-25T04:38:09;8.18;;;4.97;;
44036;SDS011;62488;-37.670;-63.532;2022-09-25T04:40:36;5.32;;;4.93;;
44036;SDS011;62488;-37.670;-63.532;2022-09-25T04:43:10;6.15;;;5.50;;
44036;SDS011;62488;-37.670;-63.532;2022-09-25T04:46:05;5.30;;;4.80;;
44036;SDS011;62488;-37.670;-63.532;2022-09-25T04:48:45;5.90;;;4.53;;
44036;SDS011;62488;-37.670;-63.532;2022-09-25T04:51:16;5.68;;;5.18;;
44036;SDS011;62488;-37.670;-63.532;2022-09-25T04:53:43;6.82;;;6.15;;
44036;SDS011;62488;-37.670;-63.532;2022-09-25T04:56:11;7.32;;;5.88;;
44036;SDS011;62488;-37.670;-63.532;2022-09-25T04:58:44;5.72;;;5.22;;
44036;SDS011;62488;-37.670;-63.532;2022-09-25T05:01:12;7.88;;;6.07;;
44036;SDS011;62488;-37.670;-63.532;2022-09-25T05:03:51;6.88;;;6.22;;
44036;SDS011;62488;-37.670;-63.532;2022-09-25T05:06:27;7.30;;;6.60;;
44036;SDS011;62488;-37.670;-63.532;2022-09-25T05:08:55;7.05;;;6.35;;
44036;SDS011;62488;-37.670;-63.532;2022-09-25T05:11:25;6.40;;;5.75;;
44036;SDS011;62488;-37.670;-63.532;2022-09-25T05:13:53;6.28;;;5.75;;
44036;SDS011;62488;-37.670;-63.532;2022-09-25T05:16:20;6.85;;;6.05;;
44036;SDS011;62488;-37.670;-63.532;2022-09-25T05:18:47;6.78;;;6.03;;
44036;SDS011;62488;-37.670;-63.532;2022-09-25T05:21:15;11.00;;;6.85;;
44036;SDS011;62488;-37.670;-63.532;2022-09-25T05:23:42;8.95;;;6.75;;
44036;SDS011;62488;-37.670;-63.532;2022-09-25T05:26:10;7.22;;;6.57;;
44036;SDS011;62488;-37.670;-63.532;2022-09-25T05:28:41;8.25;;;7.45;;
44036;SDS011;62488;-37.670;-63.532;2022-09-25T05:31:08;7.03;;;6.43;;
44036;SDS011;62488;-37.670;-63.532;2022-09-25T05:33:36;6.25;;;5.75;;
44036;SDS011;62488;-37.670;-63.532;2022-09-25T05:36:04;6.40;;;5.80;;
44036;SDS011;62488;-37.670;-63.532;2022-09-25T05:38:34;6.97;;;6.28;;
44036;SDS011;62488;-37.670;-63.532;2022-09-25T05:41:03;6.70;;;6.10;;
44036;SDS011;62488;-37.670;-63.532;2022-09-25T05:43:37;9.07;;;5.65;;
44036;SDS011;62488;-37.670;-63.532;2022-09-25T05:46:05;7.25;;;5.85;;
44036;SDS011;62488;-37.670;-63.532;2022-09-25T05:48:33;5.20;;;4.78;;
44036;SDS011;62488;-37.670;-63.532;2022-09-25T05:51:00;6.30;;;4.80;;
44036;SDS011;62488;-37.670;-63.532;2022-09-25T05:53:29;5.10;;;4.70;;
44036;SDS011;62488;-37.670;-63.532;2022-09-25T05:55:57;4.85;;;4.28;;
44036;SDS011;62488;-37.670;-63.532;2022-09-25T05:58:27;4.72;;;4.32;;
44036;SDS011;62488;-37.670;-63.532;2022-09-25T06:01:02;5.45;;;3.80;;
44036;SDS011;62488;-37.670;-63.532;2022-09-25T06:03:30;4.68;;;4.28;;
44036;SDS011;62488;-37.670;-63.532;2022-09-25T06:06:01;5.95;;;4.30;;
44036;SDS011;62488;-37.670;-63.532;2022-09-25T06:08:28;6.05;;;4.93;;
44036;SDS011;62488;-37.670;-63.532;2022-09-25T06:11:00;5.38;;;4.88;;
44036;SDS011;62488;-37.670;-63.532;2022-09-25T06:13:31;4.93;;;4.50;;
44036;SDS011;62488;-37.670;-63.532;2022-09-25T06:16:00;7.97;;;5.07;;
44036;SDS011;62488;-37.670;-63.532;2022-09-25T06:18:27;7.65;;;4.78;;
44036;SDS011;62488;-37.670;-63.532;2022-09-25T06:21:05;4.82;;;4.38;;
44036;SDS011;62488;-37.670;-63.532;2022-09-25T06:24:01;6.03;;;5.13;;
44036;SDS011;62488;-37.670;-63.532;2022-09-25T06:26:28;5.10;;;4.68;;
44036;SDS011;62488;-37.670;-63.532;2022-09-25T06:29:03;6.10;;;5.50;;
44036;SDS011;62488;-37.670;-63.532;2022-09-25T06:31:32;12.15;;;5.22;;
44036;SDS011;62488;-37.670;-63.532;2022-09-25T06:34:07;5.38;;;4.88;;
44036;SDS011;62488;-37.670;-63.532;2022-09-25T06:36:36;6.22;;;5.13;;
44036;SDS011;62488;-37.670;-63.532;2022-09-25T06:39:03;6.07;;;5.57;;
44036;SDS011;62488;-37.670;-63.532;2022-09-25T06:41:30;8.13;;;6.18;;
44036;SDS011;62488;-37.670;-63.532;2022-09-25T06:44:01;11.20;;;5.93;;
44036;SDS011;62488;-37.670;-63.532;2022-09-25T06:46:29;7.40;;;5.80;;
44036;SDS011;62488;-37.670;-63.532;2022-09-25T06:48:56;7.05;;;6.30;;
44036;SDS011;62488;-37.670;-63.532;2022-09-25T06:51:24;9.52;;;7.28;;
44036;SDS011;62488;-37.670;-63.532;2022-09-25T06:53:56;7.97;;;6.95;;
44036;SDS011;62488;-37.670;-63.532;2022-09-25T06:56:29;8.57;;;7.03;;
44036;SDS011;62488;-37.670;-63.532;2022-09-25T06:59:12;8.70;;;7.50;;
44036;SDS011;62488;-37.670;-63.532;2022-09-25T07:02:08;10.93;;;7.85;;
44036;SDS011;62488;-37.670;-63.532;2022-09-25T07:05:04;8.65;;;7.78;;
44036;SDS011;62488;-37.670;-63.532;2022-09-25T07:07:36;9.05;;;8.15;;
44036;SDS011;62488;-37.670;-63.532;2022-09-25T07:10:04;9.85;;;8.85;;
44036;SDS011;62488;-37.670;-63.532;2022-09-25T07:12:31;8.80;;;8.07;;
44036;SDS011;62488;-37.670;-63.532;2022-09-25T07:14:58;9.15;;;8.25;;
44036;SDS011;62488;-37.670;-63.532;2022-09-25T07:17:27;9.20;;;8.48;;
44036;SDS011;62488;-37.670;-63.532;2022-09-25T07:19:59;11.20;;;9.57;;
44036;SDS011;62488;-37.670;-63.532;2022-09-25T07:22:27;10.35;;;9.02;;
44036;SDS011;62488;-37.670;-63.532;2022-09-25T07:24:55;9.85;;;8.93;;
44036;SDS011;62488;-37.670;-63.532;2022-09-25T07:27:22;10.52;;;7.35;;
44036;SDS011;62488;-37.670;-63.532;2022-09-25T07:29:50;8.43;;;7.50;;
44036;SDS011;62488;-37.670;-63.532;2022-09-25T07:32:17;7.88;;;7.18;;
44036;SDS011;62488;-37.670;-63.532;2022-09-25T07:34:45;8.50;;;7.63;;
44036;SDS011;62488;-37.670;-63.532;2022-09-25T07:37:16;9.05;;;7.88;;
44036;SDS011;62488;-37.670;-63.532;2022-09-25T07:39:52;7.97;;;7.20;;
44036;SDS011;62488;-37.670;-63.532;2022-09-25T07:45:04;6.70;;;6.20;;
44036;SDS011;62488;-37.670;-63.532;2022-09-25T07:47:31;7.65;;;6.68;;
44036;SDS011;62488;-37.670;-63.532;2022-09-25T07:49:58;11.27;;;6.95;;
44036;SDS011;62488;-37.670;-63.532;2022-09-25T07:52:26;7.13;;;5.68;;
44036;SDS011;62488;-37.670;-63.532;2022-09-25T07:54:53;7.82;;;7.00;;
44036;SDS011;62488;-37.670;-63.532;2022-09-25T07:57:20;8.00;;;7.22;;
44036;SDS011;62488;-37.670;-63.532;2022-09-25T07:59:47;7.82;;;7.13;;
44036;SDS011;62488;-37.670;-63.532;2022-09-25T08:02:15;8.82;;;8.02;;
44036;SDS011;62488;-37.670;-63.532;2022-09-25T08:04:47;8.75;;;7.95;;
44036;SDS011;62488;-37.670;-63.532;2022-09-25T08:07:15;8.00;;;7.30;;
44036;SDS011;62488;-37.670;-63.532;2022-09-25T08:09:42;8.38;;;7.68;;
44036;SDS011;62488;-37.670;-63.532;2022-09-25T08:12:10;8.38;;;7.57;;
44036;SDS011;62488;-37.670;-63.532;2022-09-25T08:14:37;7.75;;;6.93;;
44036;SDS011;62488;-37.670;-63.532;2022-09-25T08:17:06;7.82;;;7.13;;
44036;SDS011;62488;-37.670;-63.532;2022-09-25T08:19:34;7.15;;;6.55;;
44036;SDS011;62488;-37.670;-63.532;2022-09-25T08:22:01;7.30;;;6.57;;
44036;SDS011;62488;-37.670;-63.532;2022-09-25T08:24:29;8.27;;;7.40;;
44036;SDS011;62488;-37.670;-63.532;2022-09-25T08:26:57;8.60;;;7.57;;
44036;SDS011;62488;-37.670;-63.532;2022-09-25T08:29:25;7.15;;;6.45;;
44036;SDS011;62488;-37.670;-63.532;2022-09-25T08:31:52;6.78;;;6.07;;
44036;SDS011;62488;-37.670;-63.532;2022-09-25T08:34:20;8.48;;;6.82;;
44036;SDS011;62488;-37.670;-63.532;2022-09-25T08:36:48;7.32;;;6.68;;
44036;SDS011;62488;-37.670;-63.532;2022-09-25T08:39:16;10.60;;;9.32;;
44036;SDS011;62488;-37.670;-63.532;2022-09-25T08:41:48;8.15;;;7.35;;
44036;SDS011;62488;-37.670;-63.532;2022-09-25T08:44:25;6.65;;;6.05;;
44036;SDS011;62488;-37.670;-63.532;2022-09-25T08:47:04;6.53;;;5.95;;
44036;SDS011;62488;-37.670;-63.532;2022-09-25T08:49:56;7.03;;;6.28;;
44036;SDS011;62488;-37.670;-63.532;2022-09-25T08:52:27;6.53;;;5.93;;
44036;SDS011;62488;-37.670;-63.532;2022-09-25T08:54:57;9.55;;;6.30;;
44036;SDS011;62488;-37.670;-63.532;2022-09-25T08:57:30;8.25;;;6.30;;
44036;SDS011;62488;-37.670;-63.532;2022-09-25T09:00:06;7.40;;;6.72;;
44036;SDS011;62488;-37.670;-63.532;2022-09-25T09:02:53;7.82;;;7.20;;
44036;SDS011;62488;-37.670;-63.532;2022-09-25T09:05:27;8.38;;;7.65;;
44036;SDS011;62488;-37.670;-63.532;2022-09-25T09:11:04;7.57;;;6.88;;
44036;SDS011;62488;-37.670;-63.532;2022-09-25T09:13:46;7.53;;;6.93;;
44036;SDS011;62488;-37.670;-63.532;2022-09-25T09:16:38;9.82;;;8.90;;
44036;SDS011;62488;-37.670;-63.532;2022-09-25T09:19:12;9.10;;;8.18;;
44036;SDS011;62488;-37.670;-63.532;2022-09-25T09:21:42;8.10;;;7.50;;
44036;SDS011;62488;-37.670;-63.532;2022-09-25T09:24:23;8.48;;;7.72;;
44036;SDS011;62488;-37.670;-63.532;2022-09-25T09:29:40;7.15;;;5.85;;
44036;SDS011;62488;-37.670;-63.532;2022-09-25T09:45:02;7.25;;;6.63;;
44036;SDS011;62488;-37.670;-63.532;2022-09-25T09:56:19;9.90;;;7.10;;
44036;SDS011;62488;-37.670;-63.532;2022-09-25T09:59:26;7.90;;;6.82;;
44036;SDS011;62488;-37.670;-63.532;2022-09-25T10:02:07;11.27;;;6.43;;
44036;SDS011;62488;-37.670;-63.532;2022-09-25T10:04:44;7.30;;;6.70;;
44036;SDS011;62488;-37.670;-63.532;2022-09-25T10:07:14;7.72;;;6.60;;
44036;SDS011;62488;-37.670;-63.532;2022-09-25T10:09:44;7.13;;;6.43;;
44036;SDS011;62488;-37.670;-63.532;2022-09-25T10:12:29;7.38;;;6.68;;
44036;SDS011;62488;-37.670;-63.532;2022-09-25T10:15:01;6.53;;;5.93;;
44036;SDS011;62488;-37.670;-63.532;2022-09-25T10:20:16;7.95;;;6.25;;
44036;SDS011;62488;-37.670;-63.532;2022-09-25T10:22:47;6.38;;;5.78;;
44036;SDS011;62488;-37.670;-63.532;2022-09-25T10:25:35;8.02;;;5.68;;
44036;SDS011;62488;-37.670;-63.532;2022-09-25T10:34:37;5.95;;;5.28;;
44036;SDS011;62488;-37.670;-63.532;2022-09-25T10:37:16;6.10;;;4.97;;
44036;SDS011;62488;-37.670;-63.532;2022-09-25T10:40:05;5.55;;;5.05;;
44036;SDS011;62488;-37.670;-63.532;2022-09-25T10:42:47;5.03;;;4.57;;
44036;SDS011;62488;-37.670;-63.532;2022-09-25T10:45:32;5.25;;;4.82;;
44036;SDS011;62488;-37.670;-63.532;2022-09-25T10:48:01;5.78;;;5.10;;
44036;SDS011;62488;-37.670;-63.532;2022-09-25T10:51:18;5.65;;;5.13;;
44036;SDS011;62488;-37.670;-63.532;2022-09-25T10:53:46;5.60;;;5.20;;
44036;SDS011;62488;-37.670;-63.532;2022-09-25T10:56:20;6.20;;;4.63;;
44036;SDS011;62488;-37.670;-63.532;2022-09-25T10:59:08;4.47;;;4.07;;
44036;SDS011;62488;-37.670;-63.532;2022-09-25T11:01:45;9.07;;;5.35;;
44036;SDS011;62488;-37.670;-63.532;2022-09-25T11:04:22;7.07;;;5.68;;
44036;SDS011;62488;-37.670;-63.532;2022-09-25T11:06:55;5.88;;;5.40;;
44036;SDS011;62488;-37.670;-63.532;2022-09-25T11:09:29;6.85;;;4.70;;
44036;SDS011;62488;-37.670;-63.532;2022-09-25T11:12:13;6.03;;;4.47;;
44036;SDS011;62488;-37.670;-63.532;2022-09-25T11:14:54;5.38;;;4.97;;
44036;SDS011;62488;-37.670;-63.532;2022-09-25T11:17:30;6.05;;;4.85;;
44036;SDS011;62488;-37.670;-63.532;2022-09-25T11:25:35;5.78;;;4.90;;
44036;SDS011;62488;-37.670;-63.532;2022-09-25T11:30:56;5.78;;;5.18;;
44036;SDS011;62488;-37.670;-63.532;2022-09-25T11:33:36;6.63;;;5.00;;
44036;SDS011;62488;-37.670;-63.532;2022-09-25T11:36:23;4.78;;;4.35;;
44036;SDS011;62488;-37.670;-63.532;2022-09-25T11:39:19;5.88;;;5.15;;
44036;SDS011;62488;-37.670;-63.532;2022-09-25T11:45:23;5.30;;;4.85;;
44036;SDS011;62488;-37.670;-63.532;2022-09-25T11:48:11;5.82;;;5.22;;
44036;SDS011;62488;-37.670;-63.532;2022-09-25T11:53:58;6.88;;;5.93;;
44036;SDS011;62488;-37.670;-63.532;2022-09-25T11:56:40;5.65;;;5.15;;
44036;SDS011;62488;-37.670;-63.532;2022-09-25T12:06:50;5.93;;;5.43;;
44036;SDS011;62488;-37.670;-63.532;2022-09-25T12:13:01;6.10;;;5.60;;
44036;SDS011;62488;-37.670;-63.532;2022-09-25T12:22:19;8.80;;;7.90;;
44036;SDS011;62488;-37.670;-63.532;2022-09-25T12:36:54;9.93;;;9.10;;
44036;SDS011;62488;-37.670;-63.532;2022-09-25T12:43:26;11.88;;;10.77;;
44036;SDS011;62488;-37.670;-63.532;2022-09-25T12:52:46;14.03;;;12.73;;
44036;SDS011;62488;-37.670;-63.532;2022-09-25T12:55:30;18.10;;;16.48;;
44036;SDS011;62488;-37.670;-63.532;2022-09-25T13:01:34;10.43;;;9.18;;
44036;SDS011;62488;-37.670;-63.532;2022-09-25T13:07:35;12.75;;;11.55;;
44036;SDS011;62488;-37.670;-63.532;2022-09-25T13:13:50;10.38;;;9.40;;
44036;SDS011;62488;-37.670;-63.532;2022-09-25T13:16:24;10.30;;;8.20;;
44036;SDS011;62488;-37.670;-63.532;2022-09-25T13:22:01;9.30;;;8.40;;
44036;SDS011;62488;-37.670;-63.532;2022-09-25T13:24:45;9.63;;;6.63;;
44036;SDS011;62488;-37.670;-63.532;2022-09-25T13:27:41;6.95;;;6.25;;
44036;SDS011;62488;-37.670;-63.532;2022-09-25T13:30:23;7.90;;;5.72;;
44036;SDS011;62488;-37.670;-63.532;2022-09-25T13:32:56;8.05;;;6.05;;
44036;SDS011;62488;-37.670;-63.532;2022-09-25T13:35:27;9.77;;;5.93;;
44036;SDS011;62488;-37.670;-63.532;2022-09-25T13:41:12;10.23;;;6.30;;
44036;SDS011;62488;-37.670;-63.532;2022-09-25T14:00:50;10.25;;;9.25;;
44036;SDS011;62488;-37.670;-63.532;2022-09-25T14:06:30;25.25;;;21.40;;
44036;SDS011;62488;-37.670;-63.532;2022-09-25T14:09:00;42.38;;;32.72;;
44036;SDS011;62488;-37.670;-63.532;2022-09-25T14:11:34;12.30;;;10.20;;
44036;SDS011;62488;-37.670;-63.532;2022-09-25T14:14:43;14.15;;;11.75;;
44036;SDS011;62488;-37.670;-63.532;2022-09-25T14:17:23;12.02;;;9.10;;
44036;SDS011;62488;-37.670;-63.532;2022-09-25T14:19:58;12.43;;;10.55;;
44036;SDS011;62488;-37.670;-63.532;2022-09-25T14:22:47;11.60;;;8.80;;
44036;SDS011;62488;-37.670;-63.532;2022-09-25T14:37:20;7.53;;;6.82;;
44036;SDS011;62488;-37.670;-63.532;2022-09-25T14:40:28;9.32;;;5.63;;
44036;SDS011;62488;-37.670;-63.532;2022-09-25T14:43:28;7.15;;;6.43;;
44036;SDS011;62488;-37.670;-63.532;2022-09-25T14:46:05;8.65;;;7.68;;
44036;SDS011;62488;-37.670;-63.532;2022-09-25T14:48:46;15.88;;;7.78;;
44036;SDS011;62488;-37.670;-63.532;2022-09-25T14:54:00;6.03;;;5.43;;
44036;SDS011;62488;-37.670;-63.532;2022-09-25T14:56:30;9.10;;;7.90;;
44036;SDS011;62488;-37.670;-63.532;2022-09-25T14:59:09;9.80;;;6.93;;
44036;SDS011;62488;-37.670;-63.532;2022-09-25T15:01:50;11.40;;;7.78;;
44036;SDS011;62488;-37.670;-63.532;2022-09-25T15:04:27;8.43;;;6.47;;
44036;SDS011;62488;-37.670;-63.532;2022-09-25T15:09:37;6.68;;;5.97;;
44036;SDS011;62488;-37.670;-63.532;2022-09-25T15:12:26;9.55;;;7.75;;
44036;SDS011;62488;-37.670;-63.532;2022-09-25T15:15:03;9.20;;;7.63;;
44036;SDS011;62488;-37.670;-63.532;2022-09-25T15:17:37;10.25;;;6.53;;
44036;SDS011;62488;-37.670;-63.532;2022-09-25T15:20:17;8.75;;;7.40;;
44036;SDS011;62488;-37.670;-63.532;2022-09-25T15:23:03;8.30;;;7.45;;
44036;SDS011;62488;-37.670;-63.532;2022-09-25T15:25:53;5.95;;;5.13;;
44036;SDS011;62488;-37.670;-63.532;2022-09-25T15:28:49;13.05;;;6.72;;
44036;SDS011;62488;-37.670;-63.532;2022-09-25T15:31:16;18.95;;;12.95;;
44036;SDS011;62488;-37.670;-63.532;2022-09-25T15:39:52;10.93;;;8.23;;
44036;SDS011;62488;-37.670;-63.532;2022-09-25T15:42:22;15.05;;;11.57;;
44036;SDS011;62488;-37.670;-63.532;2022-09-25T15:44:58;9.57;;;6.70;;
44036;SDS011;62488;-37.670;-63.532;2022-09-25T15:50:21;16.33;;;12.55;;
44036;SDS011;62488;-37.670;-63.532;2022-09-25T15:52:51;10.57;;;8.52;;
44036;SDS011;62488;-37.670;-63.532;2022-09-25T15:55:21;11.57;;;10.38;;
44036;SDS011;62488;-37.670;-63.532;2022-09-25T15:57:53;10.07;;;9.18;;
44036;SDS011;62488;-37.670;-63.532;2022-09-25T16:00:28;18.98;;;13.30;;
44036;SDS011;62488;-37.670;-63.532;2022-09-25T16:06:03;12.80;;;8.40;;
44036;SDS011;62488;-37.670;-63.532;2022-09-25T16:08:31;22.92;;;19.77;;
44036;SDS011;62488;-37.670;-63.532;2022-09-25T16:13:51;8.63;;;6.53;;
44036;SDS011;62488;-37.670;-63.532;2022-09-25T16:16:24;7.63;;;6.40;;
44036;SDS011;62488;-37.670;-63.532;2022-09-25T16:18:57;9.23;;;6.15;;
44036;SDS011;62488;-37.670;-63.532;2022-09-25T16:23:59;9.73;;;6.32;;
44036;SDS011;62488;-37.670;-63.532;2022-09-25T16:29:46;7.13;;;6.43;;
44036;SDS011;62488;-37.670;-63.532;2022-09-25T16:32:29;6.30;;;5.65;;
44036;SDS011;62488;-37.670;-63.532;2022-09-25T16:34:58;7.55;;;6.85;;
44036;SDS011;62488;-37.670;-63.532;2022-09-25T16:37:29;7.38;;;5.72;;
44036;SDS011;62488;-37.670;-63.532;2022-09-25T16:40:22;8.77;;;6.10;;
44036;SDS011;62488;-37.670;-63.532;2022-09-25T16:42:56;6.55;;;5.75;;
44036;SDS011;62488;-37.670;-63.532;2022-09-25T16:45:33;7.05;;;4.95;;
44036;SDS011;62488;-37.670;-63.532;2022-09-25T16:48:35;8.35;;;5.68;;
44036;SDS011;62488;-37.670;-63.532;2022-09-25T16:51:26;8.38;;;5.20;;
44036;SDS011;62488;-37.670;-63.532;2022-09-25T16:53:58;7.82;;;5.70;;
44036;SDS011;62488;-37.670;-63.532;2022-09-25T16:56:49;8.30;;;5.97;;
44036;SDS011;62488;-37.670;-63.532;2022-09-25T16:59:27;10.60;;;6.05;;
44036;SDS011;62488;-37.670;-63.532;2022-09-25T17:01:58;9.48;;;5.47;;
44036;SDS011;62488;-37.670;-63.532;2022-09-25T17:04:30;8.38;;;6.10;;
44036;SDS011;62488;-37.670;-63.532;2022-09-25T17:07:06;6.95;;;5.85;;
44036;SDS011;62488;-37.670;-63.532;2022-09-25T17:09:47;10.25;;;6.03;;
44036;SDS011;62488;-37.670;-63.532;2022-09-25T17:12:20;6.97;;;6.03;;
44036;SDS011;62488;-37.670;-63.532;2022-09-25T17:15:25;10.95;;;6.13;;
44036;SDS011;62488;-37.670;-63.532;2022-09-25T17:18:21;10.68;;;6.47;;
44036;SDS011;62488;-37.670;-63.532;2022-09-25T17:20:53;6.25;;;5.63;;
44036;SDS011;62488;-37.670;-63.532;2022-09-25T17:23:25;11.60;;;5.95;;
44036;SDS011;62488;-37.670;-63.532;2022-09-25T17:26:05;7.18;;;6.55;;
44036;SDS011;62488;-37.670;-63.532;2022-09-25T17:29:17;6.28;;;5.68;;
44036;SDS011;62488;-37.670;-63.532;2022-09-25T17:31:51;8.07;;;6.32;;
44036;SDS011;62488;-37.670;-63.532;2022-09-25T17:34:58;9.18;;;7.25;;
44036;SDS011;62488;-37.670;-63.532;2022-09-25T17:37:26;7.72;;;7.03;;
44036;SDS011;62488;-37.670;-63.532;2022-09-25T17:39:56;19.25;;;8.15;;
44036;SDS011;62488;-37.670;-63.532;2022-09-25T17:42:25;8.05;;;7.32;;
44036;SDS011;62488;-37.670;-63.532;2022-09-25T17:44:57;13.38;;;7.10;;
44036;SDS011;62488;-37.670;-63.532;2022-09-25T17:47:47;6.35;;;5.85;;
44036;SDS011;62488;-37.670;-63.532;2022-09-25T17:50:38;7.20;;;5.82;;
44036;SDS011;62488;-37.670;-63.532;2022-09-25T17:53:21;9.25;;;8.05;;
44036;SDS011;62488;-37.670;-63.532;2022-09-25T17:56:02;10.93;;;8.77;;
44036;SDS011;62488;-37.670;-63.532;2022-09-25T17:58:33;10.73;;;8.43;;
44036;SDS011;62488;-37.670;-63.532;2022-09-25T18:01:02;10.75;;;8.73;;
44036;SDS011;62488;-37.670;-63.532;2022-09-25T18:03:56;10.65;;;7.88;;
44036;SDS011;62488;-37.670;-63.532;2022-09-25T18:06:38;8.93;;;7.97;;
44036;SDS011;62488;-37.670;-63.532;2022-09-25T18:09:13;9.77;;;8.77;;
44036;SDS011;62488;-37.670;-63.532;2022-09-25T18:12:36;10.75;;;9.68;;
44036;SDS011;62488;-37.670;-63.532;2022-09-25T18:14:58;11.88;;;10.80;;
44036;SDS011;62488;-37.670;-63.532;2022-09-25T18:17:33;14.07;;;12.88;;
44036;SDS011;62488;-37.670;-63.532;2022-09-25T18:20:07;13.80;;;12.35;;
44036;SDS011;62488;-37.670;-63.532;2022-09-25T18:22:58;12.52;;;11.25;;
44036;SDS011;62488;-37.670;-63.532;2022-09-25T18:25:33;13.98;;;10.73;;
44036;SDS011;62488;-37.670;-63.532;2022-09-25T18:28:35;16.35;;;13.07;;
44036;SDS011;62488;-37.670;-63.532;2022-09-25T18:31:38;14.02;;;12.80;;